Bristol, RI (02809)

11:40 PM EDT on October 24, 2014 (GMT -0400)
Ted August's Station, Bristol Highlands | Change Station
CLOSE
Current Station
Personal Weather Station
Location: Bristol, RI
Elevation: 104 ft
Nearby Weather Stations

Elev 104 ft 41.68 °N, 71.28 °W | Updated 55 seconds ago

Overcast
Overcast
50.9 °F
Feels Like 50.9 °F
N
0.0
Wind Variable Wind from North
Gusts 0.0 mph

Today
High -- | Low -- °F
--% Chance of Precip.
Yesterday
High -- | Low -- °F
Precip. -- in
7:07 AM 5:50 PM
New Moon, 2% visible
Pressure 29.76 in
Visibility 10.0 miles
Clouds Overcast 2700 ft
Dew Point 43 °F
Humidity 74%
Rainfall 0.00 in
Snow Depth Not available.
UV 0 out of 12
Pollen .10 out of 12
PM2.5 Good
Flu Activity No Activity
METAR KPVD 250251Z 32006KT 10SM OVC027 11/05 A2976 RMK AO2 SLP076 T01060050 51002

More Conditions Fewer Conditions

Pressure 29.76 in
Visibility 10.0 miles
Clouds Overcast 2700 ft
Dew Point 43 °F
Humidity 74%
Rainfall 0.00 in
Snow Depth Not available.
UV 0 out of 12
Pollen .10 out of 12
PM2.5 Good
Flu Activity No Activity
METAR KPVD 250251Z 32006KT 10SM OVC027 11/05 A2976 RMK AO2 SLP076 T01060050 51002

More Conditions Fewer Conditions

10-Day Weather Forecast

Almanac

Astronomy

Oct. 24, 2014 Rise Set
Actual Time 7:07 AM EDT 5:50 PM EDT
Civil Twilight 6:39 AM EDT 6:18 PM EDT
Nautical Twilight 6:06 AM EDT 6:51 PM EDT
Astronomical Twilight 5:34 AM EDT 7:23 PM EDT
Moon 7:43 AM EDT (10/24) 6:27 PM EDT (10/24)
Length of Visible Light 11h 39m
Length of Day
10h 42m
Tomorrow will be 2m 36s shorter.
New Moon, 2% of the Moon is Illuminated
Today
New Moon
Oct 30
First Quarter
Nov 6
Full
Nov 14
Last Quarter
Nov 22
New

Today's Extremes

State Highs State Lows

Community

WunderPhotos

Upload Photos

1,764,772 photos uploaded!

Nearby

Air Quality

  Air Quality AQ Index Pollutant
Yesterday Good
OZONE
Yesterday Good
PM2.5
Current Good
PM2.5
Friday Good
PM2.5
Friday Good
OZONE
Saturday Good
PM2.5
Saturday Good
OZONE

Snow Depth

Station Depth Elevation
No new snow has been reported.

Earthquake Activity

City Distance Mag. Time & Date
No recent earthquake activity has been reported nearby.
Minimum magnitude displayed is 2.5.

Coastal Water Temperatures

Place Temperature
Newport, RI 59.0 °F
Quonset Point, RI 59.0 °F
Conimicut Light, RI 59.0 °F

Nearby Weather Stations